sensor_id;sensor_type;location;lat;lon;timestamp;pressure;altitude;pressure_sealevel;temperature;humidity
71903;BME280;59778;50.310;18.780;2023-03-26T00:11:10;97873.25;;;7.65;89.25
71903;BME280;59778;50.310;18.780;2023-03-26T00:26:33;97856.84;;;7.67;90.77
71903;BME280;59778;50.310;18.780;2023-03-26T00:41:54;97838.59;;;7.41;92.88
71903;BME280;59778;50.310;18.780;2023-03-26T00:57:16;97816.72;;;7.29;93.50
71903;BME280;59778;50.310;18.780;2023-03-26T01:12:38;97814.47;;;7.05;94.26
71903;BME280;59778;50.310;18.780;2023-03-26T01:27:59;97807.38;;;6.76;93.33
71903;BME280;59778;50.310;18.780;2023-03-26T01:43:29;97806.22;;;6.64;92.66
71903;BME280;59778;50.310;18.780;2023-03-26T02:14:16;97810.53;;;6.80;91.39
71903;BME280;59778;50.310;18.780;2023-03-26T02:29:38;97804.97;;;6.88;90.46
71903;BME280;59778;50.310;18.780;2023-03-26T02:45:01;97788.72;;;6.75;91.89
71903;BME280;59778;50.310;18.780;2023-03-26T03:00:22;97783.16;;;6.83;91.35
71903;BME280;59778;50.310;18.780;2023-03-26T03:15:43;97777.19;;;6.87;90.83
71903;BME280;59778;50.310;18.780;2023-03-26T03:31:05;97760.16;;;6.87;89.14
71903;BME280;59778;50.310;18.780;2023-03-26T03:46:26;97784.31;;;6.95;88.51
71903;BME280;59778;50.310;18.780;2023-03-26T04:01:47;97790.50;;;6.95;90.27
71903;BME280;59778;50.310;18.780;2023-03-26T04:17:10;97793.59;;;6.92;90.43
71903;BME280;59778;50.310;18.780;2023-03-26T04:32:33;97776.38;;;6.93;89.63
71903;BME280;59778;50.310;18.780;2023-03-26T04:47:58;97779.63;;;6.82;90.47
71903;BME280;59778;50.310;18.780;2023-03-26T05:03:20;97773.41;;;6.82;89.48
71903;BME280;59778;50.310;18.780;2023-03-26T05:18:41;97783.25;;;6.96;87.61
71903;BME280;59778;50.310;18.780;2023-03-26T05:34:02;97786.91;;;7.16;85.89
71903;BME280;59778;50.310;18.780;2023-03-26T05:49:24;97789.72;;;7.29;85.04
71903;BME280;59778;50.310;18.780;2023-03-26T06:04:45;97788.41;;;7.53;83.79
71903;BME280;59778;50.310;18.780;2023-03-26T06:20:07;97789.91;;;8.23;80.10
71903;BME280;59778;50.310;18.780;2023-03-26T06:35:29;97791.56;;;8.17;79.28
71903;BME280;59778;50.310;18.780;2023-03-26T06:50:50;97790.91;;;8.15;79.41
71903;BME280;59778;50.310;18.780;2023-03-26T07:06:12;97808.19;;;8.14;79.30
71903;BME280;59778;50.310;18.780;2023-03-26T07:21:33;97802.25;;;8.38;78.72
71903;BME280;59778;50.310;18.780;2023-03-26T07:37:24;97810.00;;;8.87;78.03
71903;BME280;59778;50.310;18.780;2023-03-26T07:52:50;97810.41;;;9.24;76.01
71903;BME280;59778;50.310;18.780;2023-03-26T08:08:20;97802.47;;;9.22;73.42
71903;BME280;59778;50.310;18.780;2023-03-26T08:24:00;97814.31;;;9.54;74.97
71903;BME280;59778;50.310;18.780;2023-03-26T08:39:26;97792.38;;;9.69;72.66
71903;BME280;59778;50.310;18.780;2023-03-26T10:13:07;97760.75;;;10.01;80.00
71903;BME280;59778;50.310;18.780;2023-03-26T10:45:16;97745.72;;;10.67;72.67
71903;BME280;59778;50.310;18.780;2023-03-26T11:00:29;97729.31;;;10.80;67.46
71903;BME280;59778;50.310;18.780;2023-03-26T11:16:34;97706.44;;;12.45;62.68
71903;BME280;59778;50.310;18.780;2023-03-26T11:32:09;97682.63;;;11.99;63.84
71903;BME280;59778;50.310;18.780;2023-03-26T11:47:51;97676.25;;;12.05;63.38
71903;BME280;59778;50.310;18.780;2023-03-26T12:03:14;97645.59;;;12.51;57.27
71903;BME280;59778;50.310;18.780;2023-03-26T12:18:36;97624.16;;;12.78;57.08
71903;BME280;59778;50.310;18.780;2023-03-26T12:34:13;97607.34;;;12.58;55.64
71903;BME280;59778;50.310;18.780;2023-03-26T12:49:36;97580.41;;;13.59;50.76
71903;BME280;59778;50.310;18.780;2023-03-26T13:37:14;97545.44;;;13.05;54.52
71903;BME280;59778;50.310;18.780;2023-03-26T13:52:40;97536.78;;;12.68;55.78
71903;BME280;59778;50.310;18.780;2023-03-26T14:08:12;97523.59;;;12.65;56.83
71903;BME280;59778;50.310;18.780;2023-03-26T14:54:44;97483.03;;;12.52;53.21
71903;BME280;59778;50.310;18.780;2023-03-26T15:41:15;97454.78;;;12.69;53.23
71903;BME280;59778;50.310;18.780;2023-03-26T15:57:38;97448.81;;;13.86;48.18
71903;BME280;59778;50.310;18.780;2023-03-26T16:12:32;97427.69;;;13.03;50.74
71903;BME280;59778;50.310;18.780;2023-03-26T16:43:39;97428.63;;;12.28;52.46
71903;BME280;59778;50.310;18.780;2023-03-26T16:59:30;97433.25;;;12.05;54.61
71903;BME280;59778;50.310;18.780;2023-03-26T17:31:02;97435.69;;;11.18;57.37
71903;BME280;59778;50.310;18.780;2023-03-26T18:01:56;97452.63;;;10.72;60.15
71903;BME280;59778;50.310;18.780;2023-03-26T18:17:19;97454.84;;;10.46;61.45
71903;BME280;59778;50.310;18.780;2023-03-26T18:33:02;97444.44;;;10.43;61.99
71903;BME280;59778;50.310;18.780;2023-03-26T18:48:27;97461.88;;;10.35;63.39
71903;BME280;59778;50.310;18.780;2023-03-26T19:03:49;97455.00;;;10.08;68.06
71903;BME280;59778;50.310;18.780;2023-03-26T19:19:17;97440.13;;;9.92;69.70
71903;BME280;59778;50.310;18.780;2023-03-26T19:34:41;97427.38;;;9.74;70.96
71903;BME280;59778;50.310;18.780;2023-03-26T19:50:22;97412.34;;;9.54;74.52
71903;BME280;59778;50.310;18.780;2023-03-26T20:05:45;97412.03;;;8.87;83.74
71903;BME280;59778;50.310;18.780;2023-03-26T20:21:10;97390.25;;;8.25;93.55
71903;BME280;59778;50.310;18.780;2023-03-26T20:36:32;97378.03;;;8.60;92.28
71903;BME280;59778;50.310;18.780;2023-03-26T20:51:55;97360.59;;;8.56;96.34
71903;BME280;59778;50.310;18.780;2023-03-26T21:07:17;97315.69;;;8.48;99.57
71903;BME280;59778;50.310;18.780;2023-03-26T21:22:45;97320.06;;;8.43;99.20
71903;BME280;59778;50.310;18.780;2023-03-26T21:38:10;97329.53;;;8.21;100.00
71903;BME280;59778;50.310;18.780;2023-03-26T21:53:33;97309.88;;;8.45;99.45
71903;BME280;59778;50.310;18.780;2023-03-26T22:08:54;97300.28;;;8.04;100.00
71903;BME280;59778;50.310;18.780;2023-03-26T22:24:16;97308.66;;;7.90;100.00
71903;BME280;59778;50.310;18.780;2023-03-26T22:39:37;97286.94;;;8.10;100.00
71903;BME280;59778;50.310;18.780;2023-03-26T22:55:00;97274.97;;;8.37;100.00
71903;BME280;59778;50.310;18.780;2023-03-26T23:10:21;97269.13;;;8.40;100.00
71903;BME280;59778;50.310;18.780;2023-03-26T23:25:43;97239.84;;;8.24;100.00
71903;BME280;59778;50.310;18.780;2023-03-26T23:41:05;97236.09;;;7.87;100.00
71903;BME280;59778;50.310;18.780;2023-03-26T23:56:27;97237.88;;;7.68;100.00
